createdAt,value
2022-11-26T00:02:15.584Z,7.60
2022-11-26T00:04:42.836Z,7.70
2022-11-26T00:07:11.268Z,7.70
2022-11-26T00:09:38.522Z,7.70
2022-11-26T00:12:17.347Z,7.70
2022-11-26T00:14:44.524Z,7.70
2022-11-26T00:17:12.860Z,7.70
2022-11-26T00:19:40.696Z,7.70
2022-11-26T00:22:24.755Z,7.60
2022-11-26T00:24:52.696Z,7.60
2022-11-26T00:27:20.437Z,7.50
2022-11-26T00:29:47.633Z,7.50
2022-11-26T00:32:18.964Z,7.50
2022-11-26T00:34:46.502Z,7.50
2022-11-26T00:37:30.686Z,7.50
2022-11-26T00:39:57.964Z,7.50
2022-11-26T00:42:26.763Z,7.50
2022-11-26T00:44:53.910Z,7.50
2022-11-26T00:47:21.075Z,7.50
2022-11-26T00:49:48.237Z,7.50
2022-11-26T00:52:24.616Z,7.50
2022-11-26T00:54:54.220Z,7.50
2022-11-26T00:57:21.517Z,7.50
2022-11-26T00:59:48.708Z,7.50
2022-11-26T01:02:15.921Z,7.60
2022-11-26T01:04:43.130Z,7.70
2022-11-26T01:07:10.875Z,7.60
2022-11-26T01:09:38.644Z,7.70
2022-11-26T01:12:06.789Z,7.60
2022-11-26T01:14:33.959Z,7.60
2022-11-26T01:17:01.178Z,7.60
2022-11-26T01:19:28.427Z,7.60
2022-11-26T01:21:58.308Z,7.60
2022-11-26T01:24:25.489Z,7.50
2022-11-26T01:26:52.646Z,7.60
2022-11-26T01:29:20.389Z,7.60
2022-11-26T01:31:47.825Z,7.60
2022-11-26T01:34:15.062Z,7.60
2022-11-26T01:36:42.324Z,7.60
2022-11-26T01:39:12.555Z,7.60
2022-11-26T01:41:45.667Z,7.60
2022-11-26T01:44:20.527Z,7.60
2022-11-26T01:46:48.417Z,7.60
2022-11-26T01:49:29.717Z,7.60
2022-11-26T01:51:56.883Z,7.60
2022-11-26T01:54:24.046Z,7.60
2022-11-26T01:56:52.456Z,7.50
2022-11-26T01:59:25.363Z,7.50
2022-11-26T02:01:54.111Z,7.40
2022-11-26T02:04:21.395Z,7.30
2022-11-26T02:06:49.503Z,7.30
2022-11-26T02:09:17.670Z,7.20
2022-11-26T02:11:45.361Z,7.20
2022-11-26T02:14:12.713Z,7.20
2022-11-26T02:16:58.323Z,7.30
2022-11-26T02:19:44.740Z,7.20
2022-11-26T02:22:23.942Z,7.20
2022-11-26T02:25:00.034Z,7.20
2022-11-26T02:27:28.016Z,7.30
2022-11-26T02:30:08.361Z,7.30
2022-11-26T02:32:42.648Z,7.30
2022-11-26T02:35:13.383Z,7.20
2022-11-26T02:37:59.386Z,7.20
2022-11-26T02:40:26.676Z,7.20
2022-11-26T02:42:53.878Z,7.20
2022-11-26T02:45:23.533Z,7.20
2022-11-26T02:47:53.020Z,7.20
2022-11-26T02:50:22.099Z,7.20
2022-11-26T02:52:50.745Z,7.20
2022-11-26T02:55:19.349Z,7.20
2022-11-26T02:57:50.313Z,7.30
2022-11-26T03:00:17.887Z,7.30
2022-11-26T03:02:46.946Z,7.30
2022-11-26T03:05:16.213Z,7.30
2022-11-26T03:07:43.913Z,7.30
2022-11-26T03:10:11.152Z,7.20
2022-11-26T03:12:38.323Z,7.10
2022-11-26T03:15:05.895Z,7.10
2022-11-26T03:17:35.304Z,7.10
2022-11-26T03:20:03.669Z,7.00
2022-11-26T03:22:30.867Z,7.00
2022-11-26T03:24:58.036Z,6.90
2022-11-26T03:27:26.419Z,6.80
2022-11-26T03:29:53.616Z,6.80
2022-11-26T03:32:20.757Z,6.80
2022-11-26T03:34:47.929Z,6.80
2022-11-26T03:37:15.216Z,6.70
2022-11-26T03:39:42.464Z,6.70
2022-11-26T03:42:09.771Z,6.70
2022-11-26T03:44:37.266Z,6.60
2022-11-26T03:47:04.579Z,6.70
2022-11-26T03:49:31.738Z,6.70
2022-11-26T03:51:58.953Z,6.70
2022-11-26T03:54:26.841Z,6.70
2022-11-26T03:56:54.048Z,6.80
2022-11-26T03:59:21.249Z,6.80
2022-11-26T04:01:48.557Z,6.70
2022-11-26T04:04:15.882Z,6.70
2022-11-26T04:06:43.038Z,6.70
2022-11-26T04:09:10.259Z,6.60
2022-11-26T04:11:37.469Z,6.60
2022-11-26T04:14:04.681Z,6.50
2022-11-26T04:16:31.959Z,6.50
2022-11-26T04:18:59.895Z,6.50
2022-11-26T04:21:27.056Z,6.50
2022-11-26T04:23:54.343Z,6.60
2022-11-26T04:26:21.500Z,6.50
2022-11-26T04:28:50.591Z,6.50
2022-11-26T04:31:18.210Z,6.50
2022-11-26T04:33:45.434Z,6.50
2022-11-26T04:36:12.945Z,6.50
2022-11-26T04:38:40.127Z,6.50
2022-11-26T04:41:07.366Z,6.40
2022-11-26T04:43:34.531Z,6.30
2022-11-26T04:46:01.875Z,6.30
2022-11-26T04:48:29.076Z,6.20
2022-11-26T04:50:56.232Z,6.20
2022-11-26T04:53:23.477Z,6.20
2022-11-26T04:55:51.382Z,6.10
2022-11-26T04:58:19.417Z,6.10
2022-11-26T05:00:50.702Z,6.10
2022-11-26T05:03:19.091Z,6.00
2022-11-26T05:05:47.086Z,6.10
2022-11-26T05:08:14.355Z,6.10
2022-11-26T05:10:41.566Z,6.10
2022-11-26T05:13:08.775Z,6.10
2022-11-26T05:15:35.963Z,6.20
2022-11-26T05:18:03.207Z,6.20
2022-11-26T05:20:30.465Z,6.30
2022-11-26T05:22:57.645Z,6.30
2022-11-26T05:25:24.787Z,6.40
2022-11-26T05:27:51.980Z,6.40
2022-11-26T05:30:19.229Z,6.40
2022-11-26T05:32:46.572Z,6.40
2022-11-26T05:35:13.964Z,6.50
2022-11-26T05:37:41.112Z,6.40
2022-11-26T05:40:08.823Z,6.40
2022-11-26T05:42:36.021Z,6.40
2022-11-26T05:45:04.023Z,6.30
2022-11-26T05:47:31.163Z,6.30
2022-11-26T05:49:58.378Z,6.30
2022-11-26T05:52:26.206Z,6.20
2022-11-26T05:54:53.395Z,6.10
2022-11-26T05:57:20.855Z,6.10
2022-11-26T05:59:49.277Z,6.10
2022-11-26T06:02:16.728Z,6.20
2022-11-26T06:04:44.008Z,6.30
2022-11-26T06:07:11.211Z,6.30
2022-11-26T06:09:38.608Z,6.30
2022-11-26T06:12:06.132Z,6.20
2022-11-26T06:14:33.300Z,6.20
2022-11-26T06:17:00.589Z,6.30
2022-11-26T06:19:27.783Z,6.30
2022-11-26T06:21:54.944Z,6.30
2022-11-26T06:24:22.196Z,6.20
2022-11-26T06:26:49.383Z,6.20
2022-11-26T06:29:16.580Z,6.20
2022-11-26T06:31:43.857Z,6.10
2022-11-26T06:34:11.067Z,6.10
2022-11-26T06:36:38.263Z,6.10
2022-11-26T06:39:05.413Z,6.10
2022-11-26T06:41:32.845Z,6.10
2022-11-26T06:44:00.159Z,6.10
2022-11-26T06:46:27.483Z,6.10
2022-11-26T06:48:54.686Z,6.10
2022-11-26T06:51:22.106Z,6.00
2022-11-26T06:53:49.364Z,6.00
2022-11-26T06:56:19.130Z,6.10
2022-11-26T06:58:47.430Z,6.10
2022-11-26T07:01:16.162Z,6.00
2022-11-26T07:03:43.420Z,6.10
2022-11-26T07:06:17.971Z,6.10
2022-11-26T07:08:45.155Z,6.10
2022-11-26T07:11:12.424Z,6.10
2022-11-26T07:13:39.614Z,6.10
2022-11-26T07:16:07.170Z,6.00
2022-11-26T07:18:34.650Z,6.10
2022-11-26T07:21:06.483Z,6.10
2022-11-26T07:23:33.683Z,6.10
2022-11-26T07:26:04.444Z,6.10
2022-11-26T07:28:31.864Z,6.20
2022-11-26T07:31:03.932Z,6.30
2022-11-26T07:33:31.246Z,6.30
2022-11-26T07:35:59.518Z,6.40
2022-11-26T07:38:27.160Z,6.50
2022-11-26T07:40:54.386Z,6.60
2022-11-26T07:43:21.666Z,7.40
2022-11-26T07:45:48.910Z,9.20
2022-11-26T07:48:17.032Z,10.90
2022-11-26T07:50:45.168Z,12.30
2022-11-26T07:53:13.036Z,13.50
2022-11-26T07:55:40.568Z,14.70
2022-11-26T07:58:07.849Z,15.30
2022-11-26T08:00:35.252Z,15.90
2022-11-26T08:03:02.589Z,16.20
2022-11-26T08:05:29.843Z,16.20
2022-11-26T08:07:57.468Z,16.10
2022-11-26T08:10:24.683Z,16.60
2022-11-26T08:12:52.311Z,17.50
2022-11-26T08:15:20.390Z,17.50
2022-11-26T08:17:47.649Z,17.30
2022-11-26T08:20:14.931Z,16.40
2022-11-26T08:22:42.117Z,16.00
2022-11-26T08:25:09.501Z,16.70
2022-11-26T08:27:36.768Z,17.70
2022-11-26T08:30:04.582Z,18.00
2022-11-26T08:32:31.870Z,17.10
2022-11-26T08:34:59.242Z,16.00
2022-11-26T08:37:26.579Z,16.00
2022-11-26T08:39:53.995Z,16.40
2022-11-26T08:42:21.307Z,16.40
2022-11-26T08:44:48.585Z,17.60
2022-11-26T08:47:15.782Z,18.10
2022-11-26T08:49:43.034Z,18.70
2022-11-26T08:52:10.234Z,19.20
2022-11-26T08:54:41.988Z,19.80
2022-11-26T08:57:11.879Z,20.70
2022-11-26T08:59:39.034Z,21.40
2022-11-26T09:02:06.340Z,21.90
2022-11-26T09:04:33.860Z,22.50
2022-11-26T09:07:01.174Z,22.10
2022-11-26T09:09:29.142Z,21.70
2022-11-26T09:11:57.841Z,21.40
2022-11-26T09:14:26.211Z,20.70
2022-11-26T09:16:57.308Z,19.60
2022-11-26T09:19:25.641Z,19.70
2022-11-26T09:21:52.890Z,19.50
2022-11-26T09:24:21.306Z,19.90
2022-11-26T09:26:48.603Z,20.20
2022-11-26T09:29:17.978Z,21.00
2022-11-26T09:32:15.562Z,21.40
2022-11-26T09:34:32.704Z,22.30
2022-11-26T09:36:59.858Z,22.90
2022-11-26T09:39:27.292Z,22.20
2022-11-26T09:41:54.457Z,21.60
2022-11-26T09:44:25.372Z,20.70
2022-11-26T09:47:13.072Z,19.30
2022-11-26T09:49:49.705Z,18.30
2022-11-26T09:52:18.520Z,17.90
2022-11-26T09:54:45.765Z,17.30
2022-11-26T09:57:27.539Z,16.20
2022-11-26T09:59:55.479Z,15.70
2022-11-26T10:02:25.220Z,14.80
2022-11-26T10:04:52.499Z,14.40
2022-11-26T10:07:22.469Z,13.90
2022-11-26T10:09:56.672Z,13.50
2022-11-26T10:13:03.063Z,14.20
2022-11-26T10:15:36.047Z,15.10
2022-11-26T10:18:21.731Z,15.30
2022-11-26T10:21:09.128Z,14.60
2022-11-26T10:23:39.243Z,14.40
2022-11-26T10:26:15.359Z,14.30
2022-11-26T10:28:47.222Z,14.20
2022-11-26T10:31:31.251Z,13.80
2022-11-26T10:34:18.741Z,13.60
2022-11-26T10:36:47.228Z,13.50
2022-11-26T10:39:16.503Z,13.50
2022-11-26T10:41:43.880Z,13.60
2022-11-26T10:44:29.658Z,13.50
2022-11-26T10:46:57.541Z,13.40
2022-11-26T10:49:26.264Z,13.40
2022-11-26T10:51:54.900Z,13.30
2022-11-26T10:54:24.140Z,13.20
2022-11-26T10:56:55.012Z,13.20
2022-11-26T10:59:22.254Z,13.20
2022-11-26T11:01:51.596Z,13.20
2022-11-26T11:04:30.421Z,13.20
2022-11-26T11:06:58.163Z,13.20
2022-11-26T11:09:29.959Z,13.30
2022-11-26T11:12:09.470Z,13.30
2022-11-26T11:14:42.241Z,13.40
2022-11-26T11:17:33.069Z,13.40
2022-11-26T11:20:22.068Z,13.50
2022-11-26T11:22:57.547Z,13.70
2022-11-26T11:25:26.331Z,13.80
2022-11-26T11:27:54.197Z,13.90
2022-11-26T11:30:25.546Z,13.90
2022-11-26T11:32:55.834Z,14.10
2022-11-26T11:35:24.364Z,14.20
2022-11-26T11:37:53.464Z,14.20
2022-11-26T11:40:29.248Z,14.30
2022-11-26T11:43:00.280Z,14.40
2022-11-26T11:45:37.336Z,14.30
2022-11-26T11:48:24.783Z,14.40
2022-11-26T11:51:10.645Z,14.50
2022-11-26T11:53:47.105Z,14.60
2022-11-26T11:56:24.680Z,14.70
2022-11-26T11:59:06.928Z,14.70
2022-11-26T12:01:37.018Z,14.70
2022-11-26T12:04:09.198Z,14.70
2022-11-26T12:06:40.397Z,14.80
2022-11-26T12:09:36.918Z,14.80
2022-11-26T12:12:22.843Z,14.80
2022-11-26T12:14:56.103Z,14.80
2022-11-26T12:17:35.569Z,14.80
2022-11-26T12:20:14.499Z,14.80
2022-11-26T12:22:47.736Z,14.90
2022-11-26T12:25:36.859Z,14.90
2022-11-26T12:28:07.472Z,14.90
2022-11-26T12:30:40.993Z,14.90
2022-11-26T12:33:13.425Z,14.90
2022-11-26T12:35:43.793Z,14.90
2022-11-26T12:38:32.422Z,14.90
2022-11-26T12:41:02.762Z,14.90
2022-11-26T12:43:44.311Z,15.00
2022-11-26T12:46:17.461Z,14.90
2022-11-26T12:48:44.678Z,15.00
2022-11-26T12:51:21.289Z,15.00
2022-11-26T12:54:06.936Z,15.00
2022-11-26T12:56:34.105Z,15.00
2022-11-26T12:59:20.190Z,15.00
2022-11-26T13:01:47.506Z,15.00
2022-11-26T13:04:36.744Z,15.00
2022-11-26T13:07:05.290Z,15.00
2022-11-26T13:10:07.675Z,15.00
2022-11-26T13:12:55.476Z,15.00
2022-11-26T13:15:28.664Z,15.00
2022-11-26T13:17:58.747Z,15.00
2022-11-26T13:20:43.307Z,15.10
2022-11-26T13:23:24.999Z,15.10
2022-11-26T13:25:52.128Z,15.00
2022-11-26T13:28:31.480Z,15.10
2022-11-26T13:31:04.773Z,15.00
2022-11-26T13:33:39.073Z,15.00
2022-11-26T13:36:24.926Z,15.00
2022-11-26T13:39:04.201Z,15.00
2022-11-26T13:41:38.825Z,15.00
2022-11-26T13:44:09.135Z,15.00
2022-11-26T13:46:42.236Z,15.00
2022-11-26T13:49:15.399Z,15.00
2022-11-26T13:51:42.574Z,15.00
2022-11-26T13:54:18.295Z,15.10
2022-11-26T13:56:45.857Z,15.00
2022-11-26T13:59:12.988Z,15.00
2022-11-26T14:01:40.756Z,15.00
2022-11-26T14:04:09.714Z,14.90
2022-11-26T14:06:37.699Z,14.90
2022-11-26T14:09:05.868Z,14.90
2022-11-26T14:11:54.381Z,14.90
2022-11-26T14:14:24.703Z,14.90
2022-11-26T14:17:01.150Z,14.90
2022-11-26T14:19:40.513Z,14.80
2022-11-26T14:22:25.331Z,14.80
2022-11-26T14:24:53.940Z,14.70
2022-11-26T14:27:25.375Z,14.60
2022-11-26T14:30:07.597Z,14.60
2022-11-26T14:32:43.837Z,14.50
2022-11-26T14:35:34.239Z,14.50
2022-11-26T14:38:03.116Z,14.40
2022-11-26T14:40:31.791Z,14.40
2022-11-26T14:43:10.828Z,14.30
2022-11-26T14:45:38.235Z,14.30
2022-11-26T14:48:05.593Z,14.20
2022-11-26T14:50:33.574Z,14.10
2022-11-26T14:53:05.317Z,14.00
2022-11-26T14:55:32.921Z,14.00
2022-11-26T14:58:12.675Z,13.90
2022-11-26T15:00:39.928Z,13.80
2022-11-26T15:03:19.034Z,13.80
2022-11-26T15:05:46.221Z,13.70
2022-11-26T15:08:17.700Z,13.60
2022-11-26T15:10:49.836Z,13.50
2022-11-26T15:13:23.227Z,13.40
2022-11-26T15:15:54.621Z,13.40
2022-11-26T15:18:26.988Z,13.30
2022-11-26T15:20:54.737Z,13.10
2022-11-26T15:23:28.034Z,13.00
2022-11-26T15:25:56.016Z,12.80
2022-11-26T15:28:23.367Z,12.60
2022-11-26T15:31:01.533Z,12.50
2022-11-26T15:33:29.579Z,12.30
2022-11-26T15:35:57.414Z,12.20
2022-11-26T15:38:28.951Z,12.00
2022-11-26T15:40:56.147Z,11.80
2022-11-26T15:43:27.297Z,11.70
2022-11-26T15:45:56.301Z,11.60
2022-11-26T15:48:50.032Z,11.60
2022-11-26T15:51:24.927Z,11.80
2022-11-26T15:53:52.343Z,11.60
2022-11-26T15:56:20.968Z,11.40
2022-11-26T15:58:50.156Z,11.30
2022-11-26T16:01:18.334Z,11.10
2022-11-26T16:03:47.136Z,11.00
2022-11-26T16:06:37.776Z,10.90
2022-11-26T16:09:04.923Z,10.80
2022-11-26T16:11:36.635Z,10.90
2022-11-26T16:14:23.253Z,10.90
2022-11-26T16:16:51.216Z,10.80
2022-11-26T16:19:20.100Z,10.70
2022-11-26T16:21:48.992Z,10.70
2022-11-26T16:24:38.747Z,10.70
2022-11-26T16:27:24.901Z,10.70
2022-11-26T16:29:52.228Z,10.60
2022-11-26T16:32:19.739Z,10.40
2022-11-26T16:34:46.880Z,10.30
2022-11-26T16:37:20.216Z,10.20
2022-11-26T16:39:47.980Z,10.10
2022-11-26T16:42:19.815Z,10.00
2022-11-26T16:44:47.104Z,9.90
2022-11-26T16:47:28.204Z,9.80
2022-11-26T16:49:55.470Z,9.70
2022-11-26T16:52:22.753Z,9.70
2022-11-26T16:54:50.110Z,9.60
2022-11-26T16:57:19.039Z,9.40
2022-11-26T16:59:51.717Z,9.40
2022-11-26T17:02:19.889Z,9.40
2022-11-26T17:04:47.579Z,9.50
2022-11-26T17:07:20.837Z,9.70
2022-11-26T17:09:48.109Z,9.80
2022-11-26T17:12:16.569Z,9.80
2022-11-26T17:14:44.396Z,9.80
2022-11-26T17:17:37.678Z,9.80
2022-11-26T17:20:11.426Z,9.80
2022-11-26T17:22:38.564Z,9.80
2022-11-26T17:25:06.053Z,9.80
2022-11-26T17:27:33.328Z,9.70
2022-11-26T17:30:00.497Z,9.70
2022-11-26T17:32:27.686Z,9.60
2022-11-26T17:34:54.846Z,9.50
2022-11-26T17:37:29.438Z,9.50
2022-11-26T17:39:57.344Z,9.40
2022-11-26T17:42:25.130Z,9.40
2022-11-26T17:44:54.175Z,9.30
2022-11-26T17:47:25.330Z,9.20
2022-11-26T17:49:53.184Z,9.20
2022-11-26T17:52:20.655Z,9.20
2022-11-26T17:54:47.925Z,9.10
2022-11-26T17:57:15.992Z,9.00
2022-11-26T17:59:43.705Z,9.00
2022-11-26T18:02:11.072Z,8.90
2022-11-26T18:04:38.343Z,8.90
2022-11-26T18:07:11.529Z,8.80
2022-11-26T18:09:39.373Z,8.90
2022-11-26T18:12:08.243Z,8.90
2022-11-26T18:14:41.002Z,8.80
2022-11-26T18:17:11.359Z,8.80
2022-11-26T18:19:43.372Z,8.70
2022-11-26T18:22:14.200Z,8.70
2022-11-26T18:24:43.051Z,8.60
2022-11-26T18:27:11.153Z,8.60
2022-11-26T18:29:38.679Z,8.60
2022-11-26T18:32:06.216Z,8.60
2022-11-26T18:34:33.484Z,8.50
2022-11-26T18:37:00.651Z,8.50
2022-11-26T18:39:27.803Z,8.50
2022-11-26T18:42:15.353Z,8.50
2022-11-26T18:44:42.182Z,8.50
2022-11-26T18:47:09.548Z,8.40
2022-11-26T18:49:36.965Z,8.40
2022-11-26T18:52:04.440Z,8.30
2022-11-26T18:54:31.606Z,8.30
2022-11-26T18:56:58.792Z,8.20
2022-11-26T18:59:26.171Z,8.20
2022-11-26T19:01:53.375Z,8.20
2022-11-26T19:04:20.569Z,8.10
2022-11-26T19:06:47.736Z,8.10
2022-11-26T19:09:16.069Z,8.10
2022-11-26T19:11:43.943Z,8.00
2022-11-26T19:14:14.878Z,8.00
2022-11-26T19:16:43.019Z,8.00
2022-11-26T19:19:10.842Z,8.00
2022-11-26T19:21:38.080Z,8.10
2022-11-26T19:24:06.207Z,8.00
2022-11-26T19:26:33.395Z,8.10
2022-11-26T19:29:02.133Z,8.00
2022-11-26T19:31:30.612Z,8.00
2022-11-26T19:34:02.060Z,8.00
2022-11-26T19:36:29.878Z,8.00
2022-11-26T19:38:57.566Z,8.00
2022-11-26T19:41:26.188Z,8.00
2022-11-26T19:43:54.081Z,7.90
2022-11-26T19:46:22.830Z,7.90
2022-11-26T19:48:50.643Z,7.90
2022-11-26T19:51:18.961Z,7.90
2022-11-26T19:53:50.286Z,7.90
2022-11-26T19:56:18.905Z,7.90
2022-11-26T19:58:46.475Z,7.90
2022-11-26T20:01:15.089Z,7.90
2022-11-26T20:03:42.800Z,7.90
2022-11-26T20:06:17.503Z,7.90
2022-11-26T20:08:44.766Z,7.80
2022-11-26T20:11:12.318Z,7.70
2022-11-26T20:13:40.633Z,7.70
2022-11-26T20:16:09.927Z,7.60
2022-11-26T20:18:38.452Z,7.60
2022-11-26T20:21:07.965Z,7.40
2022-11-26T20:23:35.580Z,7.50
2022-11-26T20:26:02.767Z,7.50
2022-11-26T20:28:29.946Z,7.40
2022-11-26T20:30:57.160Z,7.40
2022-11-26T20:33:24.461Z,7.30
2022-11-26T20:35:51.645Z,7.40
2022-11-26T20:38:18.912Z,7.40
2022-11-26T20:40:46.168Z,7.40
2022-11-26T20:43:13.371Z,7.40
2022-11-26T20:45:40.644Z,7.50
2022-11-26T20:48:07.973Z,7.50
2022-11-26T20:50:35.153Z,7.50
2022-11-26T20:53:02.322Z,7.50
2022-11-26T20:55:29.548Z,7.60
2022-11-26T20:57:56.725Z,7.60
2022-11-26T21:00:27.528Z,7.50
2022-11-26T21:02:55.024Z,7.50
2022-11-26T21:05:23.188Z,7.50
2022-11-26T21:07:51.199Z,7.50
2022-11-26T21:10:18.509Z,7.50
2022-11-26T21:12:45.758Z,7.40
2022-11-26T21:15:12.992Z,7.30
2022-11-26T21:17:40.307Z,7.40
2022-11-26T21:20:07.839Z,7.40
2022-11-26T21:22:35.075Z,7.30
2022-11-26T21:25:02.277Z,7.20
2022-11-26T21:27:31.910Z,7.10
2022-11-26T21:29:59.338Z,7.00
2022-11-26T21:32:26.595Z,7.10
2022-11-26T21:34:53.885Z,7.00
2022-11-26T21:37:21.777Z,7.00
2022-11-26T21:39:48.977Z,6.90
2022-11-26T21:42:16.317Z,6.90
2022-11-26T21:44:43.520Z,6.90
2022-11-26T21:47:10.744Z,7.10
2022-11-26T21:49:38.134Z,7.10
2022-11-26T21:52:06.068Z,7.10
2022-11-26T21:54:33.239Z,7.10
2022-11-26T21:57:00.407Z,7.10
2022-11-26T21:59:28.268Z,7.00
2022-11-26T22:01:55.577Z,6.90
2022-11-26T22:04:22.837Z,6.90
2022-11-26T22:06:50.247Z,6.90
2022-11-26T22:09:17.647Z,7.00
2022-11-26T22:11:45.542Z,6.90
2022-11-26T22:14:14.953Z,6.90
2022-11-26T22:16:42.309Z,6.90
2022-11-26T22:19:09.784Z,6.90
2022-11-26T22:21:39.172Z,6.90
2022-11-26T22:24:07.266Z,6.90
2022-11-26T22:26:34.477Z,6.90
2022-11-26T22:29:01.867Z,6.90
2022-11-26T22:31:30.477Z,6.70
2022-11-26T22:33:59.691Z,6.70
2022-11-26T22:36:27.398Z,6.70
2022-11-26T22:38:55.061Z,6.60
2022-11-26T22:41:22.547Z,6.60
2022-11-26T22:43:49.755Z,6.60
2022-11-26T22:46:18.328Z,6.60
2022-11-26T22:48:49.605Z,6.60
2022-11-26T22:51:16.770Z,6.60
2022-11-26T22:53:44.036Z,6.60
2022-11-26T22:56:11.227Z,6.60
2022-11-26T22:58:38.401Z,6.60
2022-11-26T23:01:06.788Z,6.60
2022-11-26T23:03:34.783Z,6.50
2022-11-26T23:06:06.466Z,6.40
2022-11-26T23:08:33.962Z,6.40
2022-11-26T23:11:24.372Z,6.30
2022-11-26T23:13:51.654Z,6.30
2022-11-26T23:16:20.244Z,6.20
2022-11-26T23:18:47.725Z,6.20
2022-11-26T23:21:17.012Z,6.30
2022-11-26T23:23:44.674Z,6.30
2022-11-26T23:26:14.079Z,6.30
2022-11-26T23:28:41.621Z,6.40
2022-11-26T23:31:12.849Z,6.50
2022-11-26T23:33:40.119Z,6.50
2022-11-26T23:36:08.712Z,6.50
2022-11-26T23:38:36.040Z,6.40
2022-11-26T23:41:03.930Z,6.40
2022-11-26T23:43:31.896Z,6.40
2022-11-26T23:45:59.788Z,6.40
2022-11-26T23:48:27.116Z,6.40
2022-11-26T23:50:54.295Z,6.30
2022-11-26T23:53:21.486Z,6.40
2022-11-26T23:55:48.983Z,6.30
2022-11-26T23:58:16.291Z,6.30
